sensor_id;sensor_type;location;lat;lon;timestamp;temperature;humidity
10802;DHT22;5453;50.852;7.102;2023-04-15T00:00:49;8.30;99.90
10802;DHT22;5453;50.852;7.102;2023-04-15T00:03:23;8.30;99.90
10802;DHT22;5453;50.852;7.102;2023-04-15T00:05:56;8.30;99.90
10802;DHT22;5453;50.852;7.102;2023-04-15T00:08:29;8.20;99.90
10802;DHT22;5453;50.852;7.102;2023-04-15T00:11:01;8.20;99.90
10802;DHT22;5453;50.852;7.102;2023-04-15T00:13:35;8.20;99.90
10802;DHT22;5453;50.852;7.102;2023-04-15T00:16:08;8.20;99.90
10802;DHT22;5453;50.852;7.102;2023-04-15T00:18:42;8.20;99.90
10802;DHT22;5453;50.852;7.102;2023-04-15T00:21:14;8.20;99.90
10802;DHT22;5453;50.852;7.102;2023-04-15T00:23:46;8.10;99.90
10802;DHT22;5453;50.852;7.102;2023-04-15T00:26:22;8.10;99.90
10802;DHT22;5453;50.852;7.102;2023-04-15T00:28:54;8.00;99.90
10802;DHT22;5453;50.852;7.102;2023-04-15T00:31:26;8.00;99.90
10802;DHT22;5453;50.852;7.102;2023-04-15T00:34:00;8.00;99.90
10802;DHT22;5453;50.852;7.102;2023-04-15T00:36:32;7.90;99.90
10802;DHT22;5453;50.852;7.102;2023-04-15T00:39:05;7.90;99.90
10802;DHT22;5453;50.852;7.102;2023-04-15T00:41:37;7.80;99.90
10802;DHT22;5453;50.852;7.102;2023-04-15T00:44:10;7.70;99.90
10802;DHT22;5453;50.852;7.102;2023-04-15T00:46:43;7.70;99.90
10802;DHT22;5453;50.852;7.102;2023-04-15T00:49:17;7.70;99.90
10802;DHT22;5453;50.852;7.102;2023-04-15T00:51:49;7.70;99.90
10802;DHT22;5453;50.852;7.102;2023-04-15T00:54:21;7.60;99.90
10802;DHT22;5453;50.852;7.102;2023-04-15T00:56:54;7.60;99.90
10802;DHT22;5453;50.852;7.102;2023-04-15T00:59:26;7.60;99.90
10802;DHT22;5453;50.852;7.102;2023-04-15T01:01:58;7.60;99.90
10802;DHT22;5453;50.852;7.102;2023-04-15T01:04:32;7.50;99.90
10802;DHT22;5453;50.852;7.102;2023-04-15T01:07:04;7.50;99.90
10802;DHT22;5453;50.852;7.102;2023-04-15T01:09:36;7.40;99.90
10802;DHT22;5453;50.852;7.102;2023-04-15T01:12:10;7.40;99.90
10802;DHT22;5453;50.852;7.102;2023-04-15T01:14:43;7.40;99.90
10802;DHT22;5453;50.852;7.102;2023-04-15T01:17:16;7.40;99.90
10802;DHT22;5453;50.852;7.102;2023-04-15T01:19:50;7.30;99.90
10802;DHT22;5453;50.852;7.102;2023-04-15T01:22:24;7.30;99.90
10802;DHT22;5453;50.852;7.102;2023-04-15T01:25:02;7.30;99.90
10802;DHT22;5453;50.852;7.102;2023-04-15T01:27:40;7.20;99.90
10802;DHT22;5453;50.852;7.102;2023-04-15T01:30:15;7.20;99.90
10802;DHT22;5453;50.852;7.102;2023-04-15T01:32:47;7.20;99.90
10802;DHT22;5453;50.852;7.102;2023-04-15T01:35:19;7.10;99.90
10802;DHT22;5453;50.852;7.102;2023-04-15T01:37:52;7.10;99.90
10802;DHT22;5453;50.852;7.102;2023-04-15T01:40:24;7.10;99.90
10802;DHT22;5453;50.852;7.102;2023-04-15T01:42:58;7.10;99.90
10802;DHT22;5453;50.852;7.102;2023-04-15T01:45:30;7.00;99.90
10802;DHT22;5453;50.852;7.102;2023-04-15T01:48:02;7.00;99.90
10802;DHT22;5453;50.852;7.102;2023-04-15T01:50:35;7.00;99.90
10802;DHT22;5453;50.852;7.102;2023-04-15T01:53:07;6.90;99.90
10802;DHT22;5453;50.852;7.102;2023-04-15T01:55:40;6.90;99.90
10802;DHT22;5453;50.852;7.102;2023-04-15T01:58:14;6.90;99.90
10802;DHT22;5453;50.852;7.102;2023-04-15T02:00:47;6.90;99.90
10802;DHT22;5453;50.852;7.102;2023-04-15T02:03:20;6.90;99.90
10802;DHT22;5453;50.852;7.102;2023-04-15T02:05:52;6.80;99.90
10802;DHT22;5453;50.852;7.102;2023-04-15T02:08:25;6.90;99.90
10802;DHT22;5453;50.852;7.102;2023-04-15T02:10:57;6.80;99.90
10802;DHT22;5453;50.852;7.102;2023-04-15T02:13:32;6.80;99.90
10802;DHT22;5453;50.852;7.102;2023-04-15T02:16:14;6.80;99.90
10802;DHT22;5453;50.852;7.102;2023-04-15T02:18:48;6.80;99.90
10802;DHT22;5453;50.852;7.102;2023-04-15T02:21:21;6.90;99.90
10802;DHT22;5453;50.852;7.102;2023-04-15T02:23:53;6.80;99.90
10802;DHT22;5453;50.852;7.102;2023-04-15T02:26:26;6.90;99.90
10802;DHT22;5453;50.852;7.102;2023-04-15T02:29:03;6.80;99.90
10802;DHT22;5453;50.852;7.102;2023-04-15T02:31:37;6.80;99.90
10802;DHT22;5453;50.852;7.102;2023-04-15T02:34:10;6.80;99.90
10802;DHT22;5453;50.852;7.102;2023-04-15T02:36:48;6.70;99.90
10802;DHT22;5453;50.852;7.102;2023-04-15T02:39:25;6.70;99.90
10802;DHT22;5453;50.852;7.102;2023-04-15T02:41:57;6.70;99.90
10802;DHT22;5453;50.852;7.102;2023-04-15T02:44:32;6.60;99.90
10802;DHT22;5453;50.852;7.102;2023-04-15T02:47:07;6.60;99.90
10802;DHT22;5453;50.852;7.102;2023-04-15T02:49:41;6.60;99.90
10802;DHT22;5453;50.852;7.102;2023-04-15T02:52:13;6.50;99.90
10802;DHT22;5453;50.852;7.102;2023-04-15T02:54:45;6.50;99.90
10802;DHT22;5453;50.852;7.102;2023-04-15T02:57:17;6.50;99.90
10802;DHT22;5453;50.852;7.102;2023-04-15T02:59:50;6.40;99.90
10802;DHT22;5453;50.852;7.102;2023-04-15T03:02:23;6.40;99.90
10802;DHT22;5453;50.852;7.102;2023-04-15T03:04:55;6.40;99.90
10802;DHT22;5453;50.852;7.102;2023-04-15T03:07:27;6.40;99.90
10802;DHT22;5453;50.852;7.102;2023-04-15T03:10:00;6.40;99.90
10802;DHT22;5453;50.852;7.102;2023-04-15T03:12:32;6.40;99.90
10802;DHT22;5453;50.852;7.102;2023-04-15T03:15:08;6.40;99.90
10802;DHT22;5453;50.852;7.102;2023-04-15T03:17:45;6.40;99.90
10802;DHT22;5453;50.852;7.102;2023-04-15T03:20:19;6.30;99.90
10802;DHT22;5453;50.852;7.102;2023-04-15T03:22:52;6.40;99.90
10802;DHT22;5453;50.852;7.102;2023-04-15T03:25:26;6.40;99.90
10802;DHT22;5453;50.852;7.102;2023-04-15T03:27:59;6.30;99.90
10802;DHT22;5453;50.852;7.102;2023-04-15T03:30:32;6.30;99.90
10802;DHT22;5453;50.852;7.102;2023-04-15T03:33:04;6.30;99.90
10802;DHT22;5453;50.852;7.102;2023-04-15T03:35:37;6.30;99.90
10802;DHT22;5453;50.852;7.102;2023-04-15T03:38:09;6.20;99.90
10802;DHT22;5453;50.852;7.102;2023-04-15T03:40:41;6.20;99.90
10802;DHT22;5453;50.852;7.102;2023-04-15T03:43:13;6.20;99.90
10802;DHT22;5453;50.852;7.102;2023-04-15T03:45:47;6.20;99.90
10802;DHT22;5453;50.852;7.102;2023-04-15T03:48:19;6.20;99.90
10802;DHT22;5453;50.852;7.102;2023-04-15T03:50:51;6.10;99.90
10802;DHT22;5453;50.852;7.102;2023-04-15T03:53:23;6.10;99.90
10802;DHT22;5453;50.852;7.102;2023-04-15T03:55:55;6.10;99.90
10802;DHT22;5453;50.852;7.102;2023-04-15T03:58:27;6.00;99.90
10802;DHT22;5453;50.852;7.102;2023-04-15T04:03:35;6.00;99.90
10802;DHT22;5453;50.852;7.102;2023-04-15T04:06:07;6.00;99.90
10802;DHT22;5453;50.852;7.102;2023-04-15T04:08:40;6.00;99.90
10802;DHT22;5453;50.852;7.102;2023-04-15T04:11:12;6.00;99.90
10802;DHT22;5453;50.852;7.102;2023-04-15T04:13:45;5.90;99.90
10802;DHT22;5453;50.852;7.102;2023-04-15T04:16:17;5.90;99.90
10802;DHT22;5453;50.852;7.102;2023-04-15T04:18:50;5.80;99.90
10802;DHT22;5453;50.852;7.102;2023-04-15T04:21:23;5.80;99.90
10802;DHT22;5453;50.852;7.102;2023-04-15T04:23:56;5.80;99.90
10802;DHT22;5453;50.852;7.102;2023-04-15T04:26:28;5.80;99.90
10802;DHT22;5453;50.852;7.102;2023-04-15T04:29:00;5.70;99.90
10802;DHT22;5453;50.852;7.102;2023-04-15T04:31:32;5.70;99.90
10802;DHT22;5453;50.852;7.102;2023-04-15T04:34:06;5.70;99.90
10802;DHT22;5453;50.852;7.102;2023-04-15T04:36:38;5.70;99.90
10802;DHT22;5453;50.852;7.102;2023-04-15T04:39:10;5.60;99.90
10802;DHT22;5453;50.852;7.102;2023-04-15T04:41:42;5.60;99.90
10802;DHT22;5453;50.852;7.102;2023-04-15T04:44:15;5.60;99.90
10802;DHT22;5453;50.852;7.102;2023-04-15T04:46:47;5.60;99.90
10802;DHT22;5453;50.852;7.102;2023-04-15T04:49:21;5.60;99.90
10802;DHT22;5453;50.852;7.102;2023-04-15T04:51:53;5.60;99.90
10802;DHT22;5453;50.852;7.102;2023-04-15T04:54:26;5.60;99.90
10802;DHT22;5453;50.852;7.102;2023-04-15T04:56:58;5.50;99.90
10802;DHT22;5453;50.852;7.102;2023-04-15T04:59:31;5.50;99.90
10802;DHT22;5453;50.852;7.102;2023-04-15T05:02:03;5.50;99.90
10802;DHT22;5453;50.852;7.102;2023-04-15T05:04:37;5.50;99.90
10802;DHT22;5453;50.852;7.102;2023-04-15T05:07:09;5.50;99.90
10802;DHT22;5453;50.852;7.102;2023-04-15T05:09:43;5.50;99.90
10802;DHT22;5453;50.852;7.102;2023-04-15T05:12:16;5.50;99.90
10802;DHT22;5453;50.852;7.102;2023-04-15T05:14:48;5.50;99.90
10802;DHT22;5453;50.852;7.102;2023-04-15T05:17:20;5.50;99.90
10802;DHT22;5453;50.852;7.102;2023-04-15T05:19:53;5.50;99.90
10802;DHT22;5453;50.852;7.102;2023-04-15T05:22:26;5.60;99.90
10802;DHT22;5453;50.852;7.102;2023-04-15T05:24:59;5.70;99.90
10802;DHT22;5453;50.852;7.102;2023-04-15T05:27:31;5.80;99.90
10802;DHT22;5453;50.852;7.102;2023-04-15T05:30:04;5.90;99.90
10802;DHT22;5453;50.852;7.102;2023-04-15T05:32:37;6.00;99.90
10802;DHT22;5453;50.852;7.102;2023-04-15T05:35:11;6.20;99.90
10802;DHT22;5453;50.852;7.102;2023-04-15T05:37:43;6.30;99.90
10802;DHT22;5453;50.852;7.102;2023-04-15T05:40:16;6.40;99.90
10802;DHT22;5453;50.852;7.102;2023-04-15T05:42:50;6.50;99.90
10802;DHT22;5453;50.852;7.102;2023-04-15T05:45:23;6.60;99.90
10802;DHT22;5453;50.852;7.102;2023-04-15T05:47:55;6.60;99.90
10802;DHT22;5453;50.852;7.102;2023-04-15T05:50:28;6.80;99.90
10802;DHT22;5453;50.852;7.102;2023-04-15T05:53:01;6.90;99.90
10802;DHT22;5453;50.852;7.102;2023-04-15T05:55:33;7.10;99.90
10802;DHT22;5453;50.852;7.102;2023-04-15T05:58:06;7.30;99.90
10802;DHT22;5453;50.852;7.102;2023-04-15T06:00:38;7.50;99.90
10802;DHT22;5453;50.852;7.102;2023-04-15T06:03:10;7.80;99.90
10802;DHT22;5453;50.852;7.102;2023-04-15T06:05:44;8.20;99.90
10802;DHT22;5453;50.852;7.102;2023-04-15T06:08:16;8.60;99.90
10802;DHT22;5453;50.852;7.102;2023-04-15T06:10:48;9.10;99.90
10802;DHT22;5453;50.852;7.102;2023-04-15T06:13:20;9.40;99.90
10802;DHT22;5453;50.852;7.102;2023-04-15T06:15:52;9.70;99.90
10802;DHT22;5453;50.852;7.102;2023-04-15T06:18:24;10.00;99.90
10802;DHT22;5453;50.852;7.102;2023-04-15T06:20:58;10.40;99.90
10802;DHT22;5453;50.852;7.102;2023-04-15T06:23:30;10.80;99.90
10802;DHT22;5453;50.852;7.102;2023-04-15T06:26:05;11.20;99.90
10802;DHT22;5453;50.852;7.102;2023-04-15T06:28:37;11.50;99.90
10802;DHT22;5453;50.852;7.102;2023-04-15T06:31:09;11.70;99.20
10802;DHT22;5453;50.852;7.102;2023-04-15T06:33:41;11.80;98.80
10802;DHT22;5453;50.852;7.102;2023-04-15T06:36:15;11.90;98.40
10802;DHT22;5453;50.852;7.102;2023-04-15T06:38:47;12.10;98.00
10802;DHT22;5453;50.852;7.102;2023-04-15T06:41:19;12.40;97.40
10802;DHT22;5453;50.852;7.102;2023-04-15T06:43:51;12.60;96.80
10802;DHT22;5453;50.852;7.102;2023-04-15T06:46:23;12.90;96.60
10802;DHT22;5453;50.852;7.102;2023-04-15T06:48:55;13.00;96.20
10802;DHT22;5453;50.852;7.102;2023-04-15T06:51:29;13.10;95.90
10802;DHT22;5453;50.852;7.102;2023-04-15T06:54:02;13.10;96.30
10802;DHT22;5453;50.852;7.102;2023-04-15T06:56:35;13.00;96.00
10802;DHT22;5453;50.852;7.102;2023-04-15T06:59:07;13.00;95.80
10802;DHT22;5453;50.852;7.102;2023-04-15T07:01:39;13.00;96.00
10802;DHT22;5453;50.852;7.102;2023-04-15T07:04:11;13.10;96.00
10802;DHT22;5453;50.852;7.102;2023-04-15T07:06:45;13.30;96.10
10802;DHT22;5453;50.852;7.102;2023-04-15T07:09:17;13.70;95.50
10802;DHT22;5453;50.852;7.102;2023-04-15T07:11:49;14.00;95.00
10802;DHT22;5453;50.852;7.102;2023-04-15T07:14:22;14.30;94.60
10802;DHT22;5453;50.852;7.102;2023-04-15T07:16:54;14.50;93.80
10802;DHT22;5453;50.852;7.102;2023-04-15T07:19:27;14.60;93.30
10802;DHT22;5453;50.852;7.102;2023-04-15T07:22:00;14.70;93.20
10802;DHT22;5453;50.852;7.102;2023-04-15T07:24:33;14.90;92.70
10802;DHT22;5453;50.852;7.102;2023-04-15T07:27:05;15.10;91.80
10802;DHT22;5453;50.852;7.102;2023-04-15T07:29:38;15.20;91.50
10802;DHT22;5453;50.852;7.102;2023-04-15T07:32:10;15.10;91.20
10802;DHT22;5453;50.852;7.102;2023-04-15T07:34:42;15.20;91.80
10802;DHT22;5453;50.852;7.102;2023-04-15T07:37:15;15.10;91.30
10802;DHT22;5453;50.852;7.102;2023-04-15T07:39:48;15.00;90.90
10802;DHT22;5453;50.852;7.102;2023-04-15T07:42:20;14.90;90.70
10802;DHT22;5453;50.852;7.102;2023-04-15T07:44:52;14.80;91.00
10802;DHT22;5453;50.852;7.102;2023-04-15T07:47:24;14.70;91.40
10802;DHT22;5453;50.852;7.102;2023-04-15T07:49:57;14.60;91.70
10802;DHT22;5453;50.852;7.102;2023-04-15T07:52:31;14.60;91.80
10802;DHT22;5453;50.852;7.102;2023-04-15T07:55:09;14.70;91.70
10802;DHT22;5453;50.852;7.102;2023-04-15T07:57:41;14.80;90.90
10802;DHT22;5453;50.852;7.102;2023-04-15T08:00:14;14.90;90.20
10802;DHT22;5453;50.852;7.102;2023-04-15T08:02:46;14.80;89.70
10802;DHT22;5453;50.852;7.102;2023-04-15T08:05:19;14.70;87.90
10802;DHT22;5453;50.852;7.102;2023-04-15T08:07:53;14.70;88.20
10802;DHT22;5453;50.852;7.102;2023-04-15T08:10:26;14.70;89.40
10802;DHT22;5453;50.852;7.102;2023-04-15T08:12:58;14.80;89.10
10802;DHT22;5453;50.852;7.102;2023-04-15T08:15:30;14.90;88.50
10802;DHT22;5453;50.852;7.102;2023-04-15T08:18:03;15.00;88.90
10802;DHT22;5453;50.852;7.102;2023-04-15T08:20:35;15.20;88.60
10802;DHT22;5453;50.852;7.102;2023-04-15T08:23:08;15.30;86.90
10802;DHT22;5453;50.852;7.102;2023-04-15T08:25:40;15.60;90.00
10802;DHT22;5453;50.852;7.102;2023-04-15T08:28:12;15.90;90.20
10802;DHT22;5453;50.852;7.102;2023-04-15T08:30:45;16.20;86.20
10802;DHT22;5453;50.852;7.102;2023-04-15T08:33:17;16.40;85.50
10802;DHT22;5453;50.852;7.102;2023-04-15T08:35:50;16.50;84.30
10802;DHT22;5453;50.852;7.102;2023-04-15T08:38:24;16.50;83.40
10802;DHT22;5453;50.852;7.102;2023-04-15T08:40:57;16.40;80.70
10802;DHT22;5453;50.852;7.102;2023-04-15T08:43:33;16.30;83.90
10802;DHT22;5453;50.852;7.102;2023-04-15T08:46:07;16.60;86.70
10802;DHT22;5453;50.852;7.102;2023-04-15T08:48:41;16.60;79.80
10802;DHT22;5453;50.852;7.102;2023-04-15T08:51:13;16.40;76.20
10802;DHT22;5453;50.852;7.102;2023-04-15T08:53:48;16.00;76.70
10802;DHT22;5453;50.852;7.102;2023-04-15T08:56:24;15.70;75.70
10802;DHT22;5453;50.852;7.102;2023-04-15T08:58:57;15.60;77.10
10802;DHT22;5453;50.852;7.102;2023-04-15T09:01:31;15.80;78.50
10802;DHT22;5453;50.852;7.102;2023-04-15T09:04:04;16.10;78.30
10802;DHT22;5453;50.852;7.102;2023-04-15T09:06:38;16.50;77.80
10802;DHT22;5453;50.852;7.102;2023-04-15T09:09:12;16.70;76.70
10802;DHT22;5453;50.852;7.102;2023-04-15T09:11:45;16.90;76.70
10802;DHT22;5453;50.852;7.102;2023-04-15T09:14:17;17.10;76.50
10802;DHT22;5453;50.852;7.102;2023-04-15T09:16:55;17.10;75.40
10802;DHT22;5453;50.852;7.102;2023-04-15T09:19:28;17.40;75.90
10802;DHT22;5453;50.852;7.102;2023-04-15T09:22:01;17.60;74.30
10802;DHT22;5453;50.852;7.102;2023-04-15T09:24:38;17.70;73.60
10802;DHT22;5453;50.852;7.102;2023-04-15T09:27:15;17.60;72.00
10802;DHT22;5453;50.852;7.102;2023-04-15T09:29:49;17.40;70.20
10802;DHT22;5453;50.852;7.102;2023-04-15T09:32:21;17.10;70.60
10802;DHT22;5453;50.852;7.102;2023-04-15T09:34:54;17.00;72.20
10802;DHT22;5453;50.852;7.102;2023-04-15T09:37:34;17.00;73.10
10802;DHT22;5453;50.852;7.102;2023-04-15T09:40:09;17.20;72.60
10802;DHT22;5453;50.852;7.102;2023-04-15T09:42:54;17.30;71.30
10802;DHT22;5453;50.852;7.102;2023-04-15T09:45:27;17.40;71.20
10802;DHT22;5453;50.852;7.102;2023-04-15T09:48:14;17.60;71.60
10802;DHT22;5453;50.852;7.102;2023-04-15T09:50:48;17.90;72.20
10802;DHT22;5453;50.852;7.102;2023-04-15T09:53:24;18.10;71.70
10802;DHT22;5453;50.852;7.102;2023-04-15T09:55:58;18.30;71.60
10802;DHT22;5453;50.852;7.102;2023-04-15T09:58:33;18.20;70.20
10802;DHT22;5453;50.852;7.102;2023-04-15T10:03:40;17.90;71.60
10802;DHT22;5453;50.852;7.102;2023-04-15T10:06:13;17.90;71.50
10802;DHT22;5453;50.852;7.102;2023-04-15T10:08:46;17.80;72.10
10802;DHT22;5453;50.852;7.102;2023-04-15T10:11:21;17.90;73.80
10802;DHT22;5453;50.852;7.102;2023-04-15T10:13:53;17.90;71.00
10802;DHT22;5453;50.852;7.102;2023-04-15T10:16:27;17.70;73.00
10802;DHT22;5453;50.852;7.102;2023-04-15T10:19:01;17.70;72.00
10802;DHT22;5453;50.852;7.102;2023-04-15T10:21:34;17.60;73.90
10802;DHT22;5453;50.852;7.102;2023-04-15T10:24:08;17.70;73.70
10802;DHT22;5453;50.852;7.102;2023-04-15T10:26:41;17.80;72.80
10802;DHT22;5453;50.852;7.102;2023-04-15T10:29:15;17.90;73.40
10802;DHT22;5453;50.852;7.102;2023-04-15T10:31:48;18.00;73.40
10802;DHT22;5453;50.852;7.102;2023-04-15T10:34:20;18.10;71.60
10802;DHT22;5453;50.852;7.102;2023-04-15T10:36:54;18.10;72.80
10802;DHT22;5453;50.852;7.102;2023-04-15T10:39:41;18.00;71.00
10802;DHT22;5453;50.852;7.102;2023-04-15T10:42:16;17.80;71.60
10802;DHT22;5453;50.852;7.102;2023-04-15T10:44:51;17.70;72.10
10802;DHT22;5453;50.852;7.102;2023-04-15T10:47:27;17.60;72.40
10802;DHT22;5453;50.852;7.102;2023-04-15T10:50:01;17.60;73.20
10802;DHT22;5453;50.852;7.102;2023-04-15T10:52:33;17.40;73.20
10802;DHT22;5453;50.852;7.102;2023-04-15T10:55:12;17.20;73.70
10802;DHT22;5453;50.852;7.102;2023-04-15T10:57:51;16.80;74.70
10802;DHT22;5453;50.852;7.102;2023-04-15T11:00:25;16.60;76.10
10802;DHT22;5453;50.852;7.102;2023-04-15T11:03:04;16.50;77.60
10802;DHT22;5453;50.852;7.102;2023-04-15T11:05:50;16.50;77.80
10802;DHT22;5453;50.852;7.102;2023-04-15T11:08:54;16.60;78.30
10802;DHT22;5453;50.852;7.102;2023-04-15T11:12:05;16.60;78.30
10802;DHT22;5453;50.852;7.102;2023-04-15T11:14:40;16.70;78.00
10802;DHT22;5453;50.852;7.102;2023-04-15T11:17:12;16.60;77.10
10802;DHT22;5453;50.852;7.102;2023-04-15T11:19:44;16.50;77.60
10802;DHT22;5453;50.852;7.102;2023-04-15T11:22:17;16.40;77.40
10802;DHT22;5453;50.852;7.102;2023-04-15T11:24:49;16.40;78.00
10802;DHT22;5453;50.852;7.102;2023-04-15T11:27:21;16.30;78.30
10802;DHT22;5453;50.852;7.102;2023-04-15T11:29:55;16.20;78.40
10802;DHT22;5453;50.852;7.102;2023-04-15T11:32:27;16.10;79.20
10802;DHT22;5453;50.852;7.102;2023-04-15T11:34:59;16.00;80.10
10802;DHT22;5453;50.852;7.102;2023-04-15T11:37:31;15.90;80.40
10802;DHT22;5453;50.852;7.102;2023-04-15T11:40:04;15.90;81.50
10802;DHT22;5453;50.852;7.102;2023-04-15T11:42:37;15.80;81.80
10802;DHT22;5453;50.852;7.102;2023-04-15T11:45:13;15.80;82.10
10802;DHT22;5453;50.852;7.102;2023-04-15T11:47:46;15.70;82.40
10802;DHT22;5453;50.852;7.102;2023-04-15T11:50:19;15.60;82.90
10802;DHT22;5453;50.852;7.102;2023-04-15T11:52:53;15.50;83.50
10802;DHT22;5453;50.852;7.102;2023-04-15T11:55:26;15.40;83.60
10802;DHT22;5453;50.852;7.102;2023-04-15T11:58:11;15.50;84.40
10802;DHT22;5453;50.852;7.102;2023-04-15T12:00:48;15.50;84.80
10802;DHT22;5453;50.852;7.102;2023-04-15T12:03:23;15.50;84.90
10802;DHT22;5453;50.852;7.102;2023-04-15T12:09:10;15.30;85.40
10802;DHT22;5453;50.852;7.102;2023-04-15T12:11:43;15.10;86.10
10802;DHT22;5453;50.852;7.102;2023-04-15T12:14:23;14.90;86.70
10802;DHT22;5453;50.852;7.102;2023-04-15T12:16:59;14.80;87.10
10802;DHT22;5453;50.852;7.102;2023-04-15T12:19:36;14.70;87.60
10802;DHT22;5453;50.852;7.102;2023-04-15T12:22:11;14.60;88.90
10802;DHT22;5453;50.852;7.102;2023-04-15T12:24:43;14.60;89.30
10802;DHT22;5453;50.852;7.102;2023-04-15T12:27:17;14.60;90.00
10802;DHT22;5453;50.852;7.102;2023-04-15T12:29:50;14.50;90.00
10802;DHT22;5453;50.852;7.102;2023-04-15T12:32:35;14.50;90.30
10802;DHT22;5453;50.852;7.102;2023-04-15T12:35:08;14.50;90.60
10802;DHT22;5453;50.852;7.102;2023-04-15T12:37:40;14.50;90.90
10802;DHT22;5453;50.852;7.102;2023-04-15T12:40:12;14.40;91.30
10802;DHT22;5453;50.852;7.102;2023-04-15T12:42:44;14.40;91.20
10802;DHT22;5453;50.852;7.102;2023-04-15T12:45:17;14.30;91.60
10802;DHT22;5453;50.852;7.102;2023-04-15T12:47:50;14.20;91.90
10802;DHT22;5453;50.852;7.102;2023-04-15T12:50:22;14.10;92.10
10802;DHT22;5453;50.852;7.102;2023-04-15T12:52:54;14.10;92.40
10802;DHT22;5453;50.852;7.102;2023-04-15T12:55:26;14.00;92.80
10802;DHT22;5453;50.852;7.102;2023-04-15T12:57:58;13.90;93.30
10802;DHT22;5453;50.852;7.102;2023-04-15T13:00:33;13.90;93.70
10802;DHT22;5453;50.852;7.102;2023-04-15T13:03:06;13.80;94.10
10802;DHT22;5453;50.852;7.102;2023-04-15T13:05:38;13.80;94.50
10802;DHT22;5453;50.852;7.102;2023-04-15T13:08:10;13.70;95.20
10802;DHT22;5453;50.852;7.102;2023-04-15T13:10:42;13.60;95.30
10802;DHT22;5453;50.852;7.102;2023-04-15T13:13:15;13.60;95.70
10802;DHT22;5453;50.852;7.102;2023-04-15T13:15:47;13.60;95.90
10802;DHT22;5453;50.852;7.102;2023-04-15T13:18:20;13.50;96.30
10802;DHT22;5453;50.852;7.102;2023-04-15T13:20:53;13.50;96.60
10802;DHT22;5453;50.852;7.102;2023-04-15T13:23:26;13.50;97.00
10802;DHT22;5453;50.852;7.102;2023-04-15T13:25:58;13.50;97.30
10802;DHT22;5453;50.852;7.102;2023-04-15T13:28:30;13.40;97.40
10802;DHT22;5453;50.852;7.102;2023-04-15T13:31:04;13.40;97.80
10802;DHT22;5453;50.852;7.102;2023-04-15T13:33:37;13.30;98.10
10802;DHT22;5453;50.852;7.102;2023-04-15T13:36:10;13.30;98.50
10802;DHT22;5453;50.852;7.102;2023-04-15T13:38:42;13.30;99.10
10802;DHT22;5453;50.852;7.102;2023-04-15T13:41:14;13.30;99.60
10802;DHT22;5453;50.852;7.102;2023-04-15T13:43:46;13.30;99.80
10802;DHT22;5453;50.852;7.102;2023-04-15T13:46:18;13.20;99.90
10802;DHT22;5453;50.852;7.102;2023-04-15T13:48:51;13.20;99.90
10802;DHT22;5453;50.852;7.102;2023-04-15T13:51:24;13.20;99.90
10802;DHT22;5453;50.852;7.102;2023-04-15T13:53:56;13.20;99.90
10802;DHT22;5453;50.852;7.102;2023-04-15T13:56:28;13.10;99.90
10802;DHT22;5453;50.852;7.102;2023-04-15T13:59:01;13.10;99.90
10802;DHT22;5453;50.852;7.102;2023-04-15T14:01:34;13.10;99.90
10802;DHT22;5453;50.852;7.102;2023-04-15T14:04:07;13.10;99.90
10802;DHT22;5453;50.852;7.102;2023-04-15T14:06:39;13.00;99.90
10802;DHT22;5453;50.852;7.102;2023-04-15T14:09:12;13.00;99.90
10802;DHT22;5453;50.852;7.102;2023-04-15T14:11:44;13.10;99.90
10802;DHT22;5453;50.852;7.102;2023-04-15T14:14:16;13.10;99.90
10802;DHT22;5453;50.852;7.102;2023-04-15T14:16:48;13.10;99.90
10802;DHT22;5453;50.852;7.102;2023-04-15T14:19:21;13.10;99.90
10802;DHT22;5453;50.852;7.102;2023-04-15T14:21:53;13.10;99.90
10802;DHT22;5453;50.852;7.102;2023-04-15T14:24:25;13.00;99.90
10802;DHT22;5453;50.852;7.102;2023-04-15T14:26:58;13.00;99.90
10802;DHT22;5453;50.852;7.102;2023-04-15T14:29:31;13.00;99.90
10802;DHT22;5453;50.852;7.102;2023-04-15T14:32:04;13.00;99.90
10802;DHT22;5453;50.852;7.102;2023-04-15T14:34:37;13.00;99.90
10802;DHT22;5453;50.852;7.102;2023-04-15T14:37:10;13.00;99.90
10802;DHT22;5453;50.852;7.102;2023-04-15T14:39:42;12.90;99.90
10802;DHT22;5453;50.852;7.102;2023-04-15T14:42:14;12.90;99.90
10802;DHT22;5453;50.852;7.102;2023-04-15T14:44:46;13.00;99.90
10802;DHT22;5453;50.852;7.102;2023-04-15T14:47:18;13.00;99.90
10802;DHT22;5453;50.852;7.102;2023-04-15T14:49:51;13.00;99.90
10802;DHT22;5453;50.852;7.102;2023-04-15T14:52:23;12.90;99.90
10802;DHT22;5453;50.852;7.102;2023-04-15T14:54:55;12.90;99.90
10802;DHT22;5453;50.852;7.102;2023-04-15T14:57:27;12.90;99.90
10802;DHT22;5453;50.852;7.102;2023-04-15T15:00:00;12.90;99.90
10802;DHT22;5453;50.852;7.102;2023-04-15T15:02:33;12.90;99.90
10802;DHT22;5453;50.852;7.102;2023-04-15T15:05:08;12.90;99.90
10802;DHT22;5453;50.852;7.102;2023-04-15T15:07:40;12.80;99.90
10802;DHT22;5453;50.852;7.102;2023-04-15T15:10:13;12.80;99.90
10802;DHT22;5453;50.852;7.102;2023-04-15T15:12:45;12.80;99.90
10802;DHT22;5453;50.852;7.102;2023-04-15T15:15:17;12.80;99.90
10802;DHT22;5453;50.852;7.102;2023-04-15T15:17:49;12.70;99.90
10802;DHT22;5453;50.852;7.102;2023-04-15T15:20:22;12.70;99.90
10802;DHT22;5453;50.852;7.102;2023-04-15T15:22:55;12.70;99.90
10802;DHT22;5453;50.852;7.102;2023-04-15T15:25:27;12.60;99.90
10802;DHT22;5453;50.852;7.102;2023-04-15T15:27:59;12.60;99.90
10802;DHT22;5453;50.852;7.102;2023-04-15T15:30:31;12.50;99.90
10802;DHT22;5453;50.852;7.102;2023-04-15T15:33:04;12.40;99.90
10802;DHT22;5453;50.852;7.102;2023-04-15T15:35:38;12.40;99.90
10802;DHT22;5453;50.852;7.102;2023-04-15T15:38:10;12.40;99.90
10802;DHT22;5453;50.852;7.102;2023-04-15T15:40:42;12.40;99.90
10802;DHT22;5453;50.852;7.102;2023-04-15T15:43:15;12.40;99.90
10802;DHT22;5453;50.852;7.102;2023-04-15T15:45:47;12.40;99.90
10802;DHT22;5453;50.852;7.102;2023-04-15T15:48:21;12.40;99.90
10802;DHT22;5453;50.852;7.102;2023-04-15T15:50:55;12.40;99.90
10802;DHT22;5453;50.852;7.102;2023-04-15T15:53:27;12.40;99.90
10802;DHT22;5453;50.852;7.102;2023-04-15T15:56:00;12.40;99.90
10802;DHT22;5453;50.852;7.102;2023-04-15T15:58:33;12.40;99.90
10802;DHT22;5453;50.852;7.102;2023-04-15T16:01:05;12.40;99.90
10802;DHT22;5453;50.852;7.102;2023-04-15T16:03:38;12.30;99.90
10802;DHT22;5453;50.852;7.102;2023-04-15T16:06:11;12.30;99.90
10802;DHT22;5453;50.852;7.102;2023-04-15T16:08:43;12.30;99.90
10802;DHT22;5453;50.852;7.102;2023-04-15T16:11:16;12.30;99.90
10802;DHT22;5453;50.852;7.102;2023-04-15T16:13:48;12.20;99.90
10802;DHT22;5453;50.852;7.102;2023-04-15T16:16:20;12.20;99.90
10802;DHT22;5453;50.852;7.102;2023-04-15T16:18:53;12.20;99.90
10802;DHT22;5453;50.852;7.102;2023-04-15T16:21:27;12.40;99.90
10802;DHT22;5453;50.852;7.102;2023-04-15T16:24:00;13.20;99.90
10802;DHT22;5453;50.852;7.102;2023-04-15T16:26:33;13.60;99.90
10802;DHT22;5453;50.852;7.102;2023-04-15T16:29:05;13.50;99.90
10802;DHT22;5453;50.852;7.102;2023-04-15T16:31:37;13.30;99.90
10802;DHT22;5453;50.852;7.102;2023-04-15T16:34:11;13.00;99.90
10802;DHT22;5453;50.852;7.102;2023-04-15T16:36:44;12.80;99.90
10802;DHT22;5453;50.852;7.102;2023-04-15T16:39:16;12.50;99.90